EJU49KY LEPA-EGGP
Flight info
| Callsign | EJU49KY |
|---|---|
| Flight time | 2h 22m |
| Altitude | 38000 |
| Route | DRAGO DCT PAPOS DCT UMURE N863 GIROM DCT AGN DCT SECHE DCT UVELI DCT CNA DCT MANAK DCT MUREL DCT NOZHU/N0438F370 DCT SHIRI DCT TOJAQ DCT EPACE DCT ACCOP DCT MOCQO P16 PEPZE |
| Aircraft | A319/M-SDE2E3FGIJ1RWXYZ/LB1 |
Departure
| Time | 2026-05-06 17:47 |
|---|---|
| Airport | Palma de Mallorca Airport (LEPA) |
Arrival
| Time | 2026-05-06 20:09 |
|---|---|
| Airport | Liverpool John Lennon Airport (EGGP) |
| Time | Latitude | Longitude | Altitude | Speed | Heading |
|---|---|---|---|---|---|
| 2026-05-06 17:14 | 39.55050 | 2.72802 | 37 ft | 0 kts | 146° |
| 2026-05-06 17:34 | 39.55068 | 2.72785 | 34 ft | 4 kts | 136° |
| 2026-05-06 17:35 | 39.55085 | 2.72759 | 38 ft | 4 kts | 118° |
| 2026-05-06 17:35 | 39.55094 | 2.72727 | 35 ft | 4 kts | 92° |
| 2026-05-06 17:35 | 39.55090 | 2.72700 | 35 ft | 1 kts | 59° |
| 2026-05-06 17:38 | 39.55091 | 2.72701 | 35 ft | 0 kts | 59° |
| 2026-05-06 17:38 | 39.55100 | 2.72721 | 35 ft | 6 kts | 59° |
| 2026-05-06 17:38 | 39.55126 | 2.72776 | 38 ft | 8 kts | 59° |
| 2026-05-06 17:38 | 39.55159 | 2.72847 | 38 ft | 10 kts | 59° |
| 2026-05-06 17:39 | 39.55197 | 2.72929 | 38 ft | 11 kts | 58° |
| 2026-05-06 17:39 | 39.55239 | 2.73016 | 38 ft | 12 kts | 58° |
| 2026-05-06 17:39 | 39.55284 | 2.73108 | 38 ft | 12 kts | 57° |
| 2026-05-06 17:39 | 39.55330 | 2.73204 | 38 ft | 13 kts | 60° |
| 2026-05-06 17:40 | 39.55376 | 2.73306 | 38 ft | 13 kts | 59° |
| 2026-05-06 17:40 | 39.55426 | 2.73411 | 38 ft | 14 kts | 57° |
| 2026-05-06 17:40 | 39.55479 | 2.73520 | 38 ft | 14 kts | 59° |
| 2026-05-06 17:40 | 39.55490 | 2.73600 | 38 ft | 9 kts | 134° |
| 2026-05-06 17:41 | 39.55438 | 2.73644 | 37 ft | 9 kts | 148° |
| 2026-05-06 17:41 | 39.55383 | 2.73688 | 38 ft | 10 kts | 148° |
| 2026-05-06 17:41 | 39.55325 | 2.73734 | 38 ft | 10 kts | 148° |
| 2026-05-06 17:41 | 39.55261 | 2.73784 | 38 ft | 13 kts | 149° |
| 2026-05-06 17:42 | 39.55173 | 2.73852 | 38 ft | 16 kts | 148° |
| 2026-05-06 17:42 | 39.55068 | 2.73936 | 38 ft | 19 kts | 148° |
| 2026-05-06 17:42 | 39.54955 | 2.74025 | 38 ft | 19 kts | 149° |
| 2026-05-06 17:42 | 39.54845 | 2.74111 | 38 ft | 16 kts | 149° |
| 2026-05-06 17:43 | 39.54760 | 2.74066 | 38 ft | 15 kts | 239° |
| 2026-05-06 17:43 | 39.54704 | 2.73946 | 38 ft | 16 kts | 239° |
| 2026-05-06 17:43 | 39.54647 | 2.73825 | 38 ft | 16 kts | 238° |
| 2026-05-06 17:43 | 39.54589 | 2.73704 | 38 ft | 16 kts | 238° |
| 2026-05-06 17:44 | 39.54531 | 2.73580 | 38 ft | 16 kts | 239° |
| 2026-05-06 17:44 | 39.54472 | 2.73456 | 38 ft | 16 kts | 238° |
| 2026-05-06 17:44 | 39.54412 | 2.73330 | 38 ft | 16 kts | 238° |
| 2026-05-06 17:44 | 39.54352 | 2.73203 | 37 ft | 17 kts | 238° |
| 2026-05-06 17:45 | 39.54291 | 2.73075 | 38 ft | 17 kts | 237° |
| 2026-05-06 17:45 | 39.54214 | 2.73107 | 37 ft | 15 kts | 101° |
| 2026-05-06 17:45 | 39.54212 | 2.73243 | 38 ft | 12 kts | 92° |
| 2026-05-06 17:45 | 39.54192 | 2.73307 | 38 ft | 6 kts | 79° |
| 2026-05-06 17:46 | 39.54216 | 2.73361 | 38 ft | 14 kts | 59° |
| 2026-05-06 17:46 | 39.54408 | 2.73767 | 38 ft | 89 kts | 58° |
| 2026-05-06 17:46 | 39.54845 | 2.74686 | 39 ft | 148 kts | 58° |
| 2026-05-06 17:46 | 39.55412 | 2.75893 | 455 ft | 160 kts | 58° |
| 2026-05-06 17:47 | 39.55992 | 2.77149 | 1041 ft | 164 kts | 59° |
| 2026-05-06 17:47 | 39.56597 | 2.78469 | 1486 ft | 181 kts | 60° |
| 2026-05-06 17:47 | 39.57276 | 2.79947 | 1870 ft | 201 kts | 60° |
| 2026-05-06 17:47 | 39.58021 | 2.81579 | 2408 ft | 216 kts | 60° |
| 2026-05-06 17:48 | 39.58784 | 2.83267 | 3228 ft | 219 kts | 61° |
| 2026-05-06 17:48 | 39.59550 | 2.84958 | 4031 ft | 222 kts | 60° |
| 2026-05-06 17:48 | 39.60340 | 2.86698 | 4849 ft | 225 kts | 60° |
| 2026-05-06 17:48 | 39.61156 | 2.88488 | 5633 ft | 230 kts | 59° |
| 2026-05-06 17:49 | 39.62208 | 2.90018 | 6341 ft | 235 kts | 31° |
| 2026-05-06 17:49 | 39.63753 | 2.90652 | 7064 ft | 236 kts | 359° |
| 2026-05-06 17:49 | 39.65329 | 2.90153 | 7819 ft | 236 kts | 327° |
| 2026-05-06 17:49 | 39.66479 | 2.88684 | 8584 ft | 234 kts | 297° |
| 2026-05-06 17:50 | 39.67099 | 2.86730 | 9442 ft | 234 kts | 288° |
| 2026-05-06 17:50 | 39.67590 | 2.84712 | 10238 ft | 235 kts | 284° |
| 2026-05-06 17:50 | 39.67982 | 2.82640 | 10993 ft | 237 kts | 280° |
| 2026-05-06 17:50 | 39.68272 | 2.80532 | 11746 ft | 238 kts | 276° |
| 2026-05-06 17:51 | 39.68457 | 2.78387 | 12531 ft | 240 kts | 272° |
| 2026-05-06 17:51 | 39.68582 | 2.76226 | 13306 ft | 242 kts | 275° |
| 2026-05-06 17:51 | 39.68902 | 2.74054 | 13915 ft | 253 kts | 282° |
| 2026-05-06 17:51 | 39.69502 | 2.71792 | 14132 ft | 278 kts | 291° |
| 2026-05-06 17:52 | 39.70313 | 2.69399 | 14321 ft | 302 kts | 291° |
| 2026-05-06 17:52 | 39.71193 | 2.66808 | 14483 ft | 324 kts | 291° |
| 2026-05-06 17:52 | 39.72127 | 2.64077 | 14931 ft | 335 kts | 291° |
| 2026-05-06 17:52 | 39.73079 | 2.61296 | 15578 ft | 339 kts | 291° |
| 2026-05-06 17:53 | 39.74040 | 2.58486 | 16296 ft | 341 kts | 291° |
| 2026-05-06 17:53 | 39.75003 | 2.55661 | 16995 ft | 343 kts | 291° |
| 2026-05-06 17:53 | 39.75968 | 2.52815 | 17687 ft | 345 kts | 291° |
| 2026-05-06 17:53 | 39.76937 | 2.49946 | 18363 ft | 348 kts | 291° |
| 2026-05-06 17:54 | 39.77910 | 2.47056 | 18948 ft | 350 kts | 290° |
| 2026-05-06 17:54 | 39.78888 | 2.44149 | 19576 ft | 352 kts | 290° |
| 2026-05-06 17:54 | 39.79871 | 2.41230 | 20178 ft | 354 kts | 290° |
| 2026-05-06 17:54 | 39.80861 | 2.38290 | 20766 ft | 356 kts | 290° |
| 2026-05-06 17:55 | 39.81857 | 2.35329 | 21348 ft | 359 kts | 290° |
| 2026-05-06 17:55 | 39.82858 | 2.32346 | 21922 ft | 361 kts | 290° |
| 2026-05-06 17:55 | 39.83854 | 2.29331 | 22495 ft | 364 kts | 289° |
| 2026-05-06 17:55 | 39.84842 | 2.26290 | 23055 ft | 366 kts | 289° |
| 2026-05-06 17:56 | 39.85833 | 2.23218 | 23595 ft | 369 kts | 289° |
| 2026-05-06 17:56 | 39.86825 | 2.20129 | 24047 ft | 371 kts | 289° |
| 2026-05-06 17:56 | 39.87486 | 2.18069 | 24356 ft | 373 kts | 288° |
| 2026-05-06 17:56 | 39.88490 | 2.14949 | 24821 ft | 374 kts | 288° |
| 2026-05-06 17:57 | 39.89499 | 2.11818 | 25277 ft | 376 kts | 288° |
| 2026-05-06 17:57 | 39.90509 | 2.08677 | 25725 ft | 377 kts | 288° |
| 2026-05-06 17:57 | 39.91523 | 2.05520 | 26174 ft | 379 kts | 288° |
| 2026-05-06 17:57 | 39.92539 | 2.02352 | 26613 ft | 380 kts | 288° |
| 2026-05-06 17:58 | 39.93559 | 1.99164 | 27044 ft | 382 kts | 288° |
| 2026-05-06 17:58 | 39.94585 | 1.95970 | 27473 ft | 383 kts | 288° |
| 2026-05-06 17:58 | 39.95617 | 1.92761 | 27904 ft | 385 kts | 288° |
| 2026-05-06 17:58 | 39.96647 | 1.89539 | 28321 ft | 387 kts | 287° |
| 2026-05-06 17:59 | 39.97683 | 1.86288 | 28721 ft | 389 kts | 287° |
| 2026-05-06 17:59 | 39.98734 | 1.83028 | 29122 ft | 392 kts | 289° |
| 2026-05-06 17:59 | 40.00121 | 1.79920 | 29509 ft | 402 kts | 300° |
| 2026-05-06 17:59 | 40.02015 | 1.77172 | 29912 ft | 415 kts | 311° |
| 2026-05-06 18:00 | 40.04392 | 1.74923 | 30190 ft | 430 kts | 323° |
| 2026-05-06 18:00 | 40.07163 | 1.73297 | 30490 ft | 441 kts | 331° |
| 2026-05-06 18:00 | 40.10026 | 1.71841 | 30804 ft | 443 kts | 330° |
| 2026-05-06 18:00 | 40.12900 | 1.70372 | 31117 ft | 444 kts | 330° |
| 2026-05-06 18:01 | 40.15782 | 1.68898 | 31435 ft | 445 kts | 330° |
| 2026-05-06 18:01 | 40.18662 | 1.67420 | 31845 ft | 444 kts | 330° |
| 2026-05-06 18:01 | 40.21531 | 1.65949 | 32311 ft | 441 kts | 329° |
| 2026-05-06 18:01 | 40.24380 | 1.64484 | 32796 ft | 439 kts | 329° |
| 2026-05-06 18:02 | 40.27213 | 1.63025 | 33293 ft | 436 kts | 329° |
| 2026-05-06 18:02 | 40.30028 | 1.61570 | 33786 ft | 433 kts | 329° |
| 2026-05-06 18:02 | 40.32824 | 1.60121 | 34204 ft | 431 kts | 329° |
| 2026-05-06 18:02 | 40.35613 | 1.58672 | 34527 ft | 431 kts | 329° |
| 2026-05-06 18:03 | 40.38401 | 1.57222 | 34815 ft | 431 kts | 329° |
| 2026-05-06 18:03 | 40.41155 | 1.55792 | 35088 ft | 432 kts | 329° |
| 2026-05-06 18:03 | 40.43947 | 1.54342 | 35353 ft | 432 kts | 330° |
| 2026-05-06 18:03 | 40.46743 | 1.52892 | 35630 ft | 432 kts | 330° |
| 2026-05-06 18:04 | 40.49545 | 1.51439 | 35886 ft | 433 kts | 330° |
| 2026-05-06 18:04 | 40.52350 | 1.49985 | 36134 ft | 434 kts | 330° |
| 2026-05-06 18:04 | 40.55159 | 1.48531 | 36366 ft | 434 kts | 330° |
| 2026-05-06 18:04 | 40.58001 | 1.47051 | 36605 ft | 434 kts | 330° |
| 2026-05-06 18:05 | 40.60813 | 1.45583 | 36841 ft | 434 kts | 330° |
| 2026-05-06 18:05 | 40.63624 | 1.44116 | 37064 ft | 435 kts | 331° |
| 2026-05-06 18:05 | 40.66436 | 1.42648 | 37284 ft | 435 kts | 331° |
| 2026-05-06 18:05 | 40.69210 | 1.41197 | 37496 ft | 435 kts | 331° |
| 2026-05-06 18:06 | 40.72060 | 1.39702 | 37708 ft | 435 kts | 331° |
| 2026-05-06 18:06 | 40.74842 | 1.38246 | 37888 ft | 436 kts | 331° |
| 2026-05-06 18:06 | 40.80481 | 1.35304 | 37925 ft | 435 kts | 331° |
| 2026-05-06 18:07 | 40.86107 | 1.32360 | 37932 ft | 435 kts | 331° |
| 2026-05-06 18:07 | 40.91729 | 1.29405 | 37946 ft | 435 kts | 332° |
| 2026-05-06 18:08 | 40.97351 | 1.26433 | 37939 ft | 436 kts | 331° |
| 2026-05-06 18:08 | 41.02989 | 1.23456 | 37946 ft | 436 kts | 332° |
| 2026-05-06 18:09 | 41.08629 | 1.20479 | 37949 ft | 436 kts | 332° |
| 2026-05-06 18:09 | 41.14315 | 1.17631 | 37962 ft | 442 kts | 339° |
| 2026-05-06 18:10 | 41.20478 | 1.16561 | 37958 ft | 451 kts | 349° |
| 2026-05-06 18:10 | 41.26731 | 1.15917 | 37949 ft | 451 kts | 349° |
| 2026-05-06 18:11 | 41.32982 | 1.15240 | 37941 ft | 451 kts | 349° |
| 2026-05-06 18:11 | 41.39237 | 1.14567 | 37962 ft | 451 kts | 349° |
| 2026-05-06 18:12 | 41.45486 | 1.13911 | 37950 ft | 450 kts | 349° |
| 2026-05-06 18:12 | 41.51730 | 1.13263 | 37938 ft | 450 kts | 349° |
| 2026-05-06 18:13 | 41.57960 | 1.12611 | 37953 ft | 449 kts | 349° |
| 2026-05-06 18:13 | 41.64185 | 1.11953 | 37939 ft | 448 kts | 350° |
| 2026-05-06 18:14 | 41.70402 | 1.11295 | 37949 ft | 448 kts | 349° |
| 2026-05-06 18:14 | 41.76607 | 1.10634 | 37956 ft | 447 kts | 349° |
| 2026-05-06 18:15 | 41.82812 | 1.09969 | 37984 ft | 447 kts | 349° |
| 2026-05-06 18:15 | 41.89006 | 1.09293 | 37982 ft | 446 kts | 349° |
| 2026-05-06 18:16 | 41.95199 | 1.08635 | 37982 ft | 446 kts | 350° |
| 2026-05-06 18:16 | 42.01342 | 1.07979 | 37987 ft | 446 kts | 350° |
| 2026-05-06 18:17 | 42.07523 | 1.07314 | 37969 ft | 445 kts | 350° |
| 2026-05-06 18:17 | 42.13704 | 1.06649 | 37955 ft | 445 kts | 350° |
| 2026-05-06 18:18 | 42.19877 | 1.05987 | 37951 ft | 445 kts | 350° |
| 2026-05-06 18:18 | 42.26049 | 1.05323 | 37939 ft | 445 kts | 350° |
| 2026-05-06 18:19 | 42.32221 | 1.04662 | 37941 ft | 445 kts | 350° |
| 2026-05-06 18:19 | 42.38387 | 1.03999 | 37945 ft | 445 kts | 350° |
| 2026-05-06 18:20 | 42.44562 | 1.03328 | 37967 ft | 445 kts | 350° |
| 2026-05-06 18:20 | 42.50727 | 1.02658 | 37963 ft | 445 kts | 350° |
| 2026-05-06 18:21 | 42.56897 | 1.01983 | 37950 ft | 444 kts | 350° |
| 2026-05-06 18:21 | 42.63066 | 1.01310 | 37994 ft | 446 kts | 351° |
| 2026-05-06 18:22 | 42.69245 | 1.00638 | 38001 ft | 445 kts | 350° |
| 2026-05-06 18:22 | 42.75421 | 0.99957 | 37997 ft | 445 kts | 351° |
| 2026-05-06 18:23 | 42.81589 | 0.99276 | 38003 ft | 445 kts | 350° |
| 2026-05-06 18:23 | 42.87765 | 0.98593 | 38004 ft | 445 kts | 350° |
| 2026-05-06 18:24 | 42.93934 | 0.97911 | 38001 ft | 445 kts | 350° |
| 2026-05-06 18:24 | 43.00070 | 0.97241 | 38002 ft | 445 kts | 351° |
| 2026-05-06 18:25 | 43.06239 | 0.96556 | 38013 ft | 445 kts | 351° |
| 2026-05-06 18:25 | 43.12451 | 0.95863 | 37998 ft | 445 kts | 351° |
| 2026-05-06 18:26 | 43.18631 | 0.95169 | 37992 ft | 445 kts | 351° |
| 2026-05-06 18:26 | 43.24767 | 0.94494 | 38003 ft | 445 kts | 351° |
| 2026-05-06 18:27 | 43.30942 | 0.93810 | 37994 ft | 445 kts | 351° |
| 2026-05-06 18:27 | 43.37123 | 0.93123 | 37988 ft | 445 kts | 351° |
| 2026-05-06 18:28 | 43.43297 | 0.92429 | 38006 ft | 445 kts | 351° |
| 2026-05-06 18:28 | 43.49471 | 0.91735 | 37998 ft | 445 kts | 351° |
| 2026-05-06 18:29 | 43.55647 | 0.91037 | 37997 ft | 445 kts | 351° |
| 2026-05-06 18:29 | 43.61827 | 0.90344 | 37990 ft | 445 kts | 351° |
| 2026-05-06 18:30 | 43.68000 | 0.89647 | 37999 ft | 445 kts | 351° |
| 2026-05-06 18:30 | 43.74169 | 0.88947 | 37995 ft | 445 kts | 351° |
| 2026-05-06 18:31 | 43.80334 | 0.88247 | 37991 ft | 445 kts | 351° |
| 2026-05-06 18:31 | 43.86495 | 0.87511 | 38002 ft | 443 kts | 347° |
| 2026-05-06 18:32 | 43.92297 | 0.85054 | 37998 ft | 433 kts | 331° |
| 2026-05-06 18:32 | 43.97755 | 0.81517 | 37992 ft | 433 kts | 331° |
| 2026-05-06 18:33 | 44.03191 | 0.78012 | 38005 ft | 433 kts | 332° |
| 2026-05-06 18:33 | 44.08654 | 0.74484 | 37994 ft | 433 kts | 332° |
| 2026-05-06 18:34 | 44.14118 | 0.70939 | 37990 ft | 433 kts | 332° |
| 2026-05-06 18:34 | 44.19577 | 0.67400 | 37984 ft | 433 kts | 332° |
| 2026-05-06 18:35 | 44.25032 | 0.63852 | 37991 ft | 433 kts | 332° |
| 2026-05-06 18:35 | 44.30482 | 0.60299 | 37990 ft | 433 kts | 332° |
| 2026-05-06 18:36 | 44.35934 | 0.56736 | 37981 ft | 433 kts | 332° |
| 2026-05-06 18:36 | 44.41384 | 0.53152 | 37979 ft | 433 kts | 332° |
| 2026-05-06 18:37 | 44.45912 | 0.50167 | 37988 ft | 433 kts | 332° |
| 2026-05-06 18:37 | 44.52274 | 0.45967 | 37977 ft | 432 kts | 332° |
| 2026-05-06 18:38 | 44.57714 | 0.42355 | 37976 ft | 433 kts | 332° |
| 2026-05-06 18:38 | 44.63150 | 0.38732 | 37980 ft | 433 kts | 332° |
| 2026-05-06 18:39 | 44.68587 | 0.35103 | 37984 ft | 432 kts | 332° |
| 2026-05-06 18:40 | 44.76734 | 0.29651 | 37984 ft | 432 kts | 332° |
| 2026-05-06 18:40 | 44.82158 | 0.26016 | 37980 ft | 432 kts | 332° |
| 2026-05-06 18:41 | 44.87583 | 0.22373 | 37975 ft | 432 kts | 332° |
| 2026-05-06 18:41 | 44.93006 | 0.18720 | 37973 ft | 431 kts | 332° |
| 2026-05-06 18:42 | 44.98383 | 0.15092 | 37978 ft | 432 kts | 332° |
| 2026-05-06 18:42 | 45.03795 | 0.11433 | 37978 ft | 431 kts | 332° |
| 2026-05-06 18:43 | 45.09207 | 0.07769 | 37970 ft | 431 kts | 332° |
| 2026-05-06 18:43 | 45.14615 | 0.04091 | 37968 ft | 431 kts | 332° |
| 2026-05-06 18:44 | 45.20022 | 0.00412 | 37976 ft | 431 kts | 332° |
| 2026-05-06 18:44 | 45.25434 | -0.03274 | 37971 ft | 431 kts | 332° |
| 2026-05-06 18:45 | 45.29961 | -0.06369 | 37973 ft | 431 kts | 332° |
| 2026-05-06 18:45 | 45.35328 | -0.10045 | 37968 ft | 431 kts | 332° |
| 2026-05-06 18:46 | 45.40729 | -0.13745 | 37977 ft | 431 kts | 332° |
| 2026-05-06 18:46 | 45.46124 | -0.17456 | 37977 ft | 431 kts | 332° |
| 2026-05-06 18:47 | 45.51521 | -0.21176 | 37981 ft | 431 kts | 332° |
| 2026-05-06 18:47 | 45.56920 | -0.24896 | 37985 ft | 431 kts | 332° |
| 2026-05-06 18:48 | 45.62319 | -0.28632 | 37992 ft | 431 kts | 332° |
| 2026-05-06 18:48 | 45.67489 | -0.32873 | 37984 ft | 428 kts | 320° |
| 2026-05-06 18:49 | 45.72164 | -0.38150 | 37971 ft | 428 kts | 320° |
| 2026-05-06 18:49 | 45.76840 | -0.43424 | 37972 ft | 428 kts | 320° |
| 2026-05-06 18:50 | 45.81521 | -0.48711 | 37980 ft | 429 kts | 320° |
| 2026-05-06 18:50 | 45.86208 | -0.54012 | 37981 ft | 429 kts | 320° |
| 2026-05-06 18:51 | 45.90882 | -0.59325 | 37976 ft | 429 kts | 320° |
| 2026-05-06 18:51 | 45.95556 | -0.64644 | 37982 ft | 428 kts | 320° |
| 2026-05-06 18:52 | 46.00221 | -0.69972 | 37987 ft | 429 kts | 320° |
| 2026-05-06 18:52 | 46.04890 | -0.75319 | 37987 ft | 429 kts | 320° |
| 2026-05-06 18:53 | 46.09562 | -0.80669 | 37996 ft | 429 kts | 320° |
| 2026-05-06 18:53 | 46.14206 | -0.85981 | 37999 ft | 429 kts | 320° |
| 2026-05-06 18:54 | 46.18872 | -0.91345 | 38003 ft | 428 kts | 320° |
| 2026-05-06 18:54 | 46.23806 | -0.96157 | 37995 ft | 430 kts | 330° |
| 2026-05-06 18:55 | 46.29061 | -1.00275 | 37996 ft | 430 kts | 330° |
| 2026-05-06 18:55 | 46.34319 | -1.04395 | 37993 ft | 429 kts | 330° |
| 2026-05-06 18:56 | 46.39564 | -1.08531 | 37993 ft | 429 kts | 330° |
| 2026-05-06 18:56 | 46.44811 | -1.12682 | 37993 ft | 430 kts | 330° |
| 2026-05-06 18:57 | 46.50060 | -1.16837 | 37988 ft | 430 kts | 330° |
| 2026-05-06 18:57 | 46.55306 | -1.20998 | 37984 ft | 430 kts | 330° |
| 2026-05-06 18:58 | 46.60548 | -1.25184 | 37990 ft | 430 kts | 330° |
| 2026-05-06 18:58 | 46.65786 | -1.29364 | 37987 ft | 429 kts | 330° |
| 2026-05-06 18:59 | 46.71021 | -1.33540 | 37985 ft | 429 kts | 330° |
| 2026-05-06 18:59 | 46.76257 | -1.37726 | 37985 ft | 429 kts | 330° |
| 2026-05-06 19:00 | 46.81453 | -1.41898 | 37984 ft | 429 kts | 330° |
| 2026-05-06 19:00 | 46.86678 | -1.46110 | 37990 ft | 429 kts | 330° |
| 2026-05-06 19:01 | 46.91900 | -1.50318 | 37995 ft | 429 kts | 330° |
| 2026-05-06 19:01 | 46.97119 | -1.54537 | 38004 ft | 429 kts | 330° |
| 2026-05-06 19:02 | 47.02342 | -1.58769 | 38003 ft | 429 kts | 330° |
| 2026-05-06 19:02 | 47.07560 | -1.63008 | 38001 ft | 429 kts | 330° |
| 2026-05-06 19:03 | 47.12779 | -1.67255 | 37985 ft | 429 kts | 329° |
| 2026-05-06 19:03 | 47.17990 | -1.71516 | 37997 ft | 428 kts | 329° |
| 2026-05-06 19:04 | 47.23196 | -1.75772 | 37994 ft | 428 kts | 329° |
| 2026-05-06 19:04 | 47.28399 | -1.80040 | 37996 ft | 428 kts | 329° |
| 2026-05-06 19:05 | 47.33602 | -1.84310 | 37994 ft | 428 kts | 329° |
| 2026-05-06 19:05 | 47.38797 | -1.88580 | 37984 ft | 427 kts | 329° |
| 2026-05-06 19:06 | 47.43987 | -1.92854 | 37984 ft | 427 kts | 329° |
| 2026-05-06 19:06 | 47.49177 | -1.97141 | 37967 ft | 427 kts | 329° |
| 2026-05-06 19:07 | 47.54366 | -2.01434 | 37973 ft | 427 kts | 329° |
| 2026-05-06 19:07 | 47.59552 | -2.05748 | 37992 ft | 428 kts | 329° |
| 2026-05-06 19:08 | 47.64743 | -2.10082 | 37980 ft | 428 kts | 329° |
| 2026-05-06 19:08 | 47.69931 | -2.14411 | 37994 ft | 428 kts | 329° |
| 2026-05-06 19:09 | 47.75127 | -2.18757 | 37998 ft | 428 kts | 329° |
| 2026-05-06 19:09 | 47.80319 | -2.23106 | 37988 ft | 428 kts | 329° |
| 2026-05-06 19:10 | 47.85474 | -2.27435 | 37986 ft | 428 kts | 329° |
| 2026-05-06 19:10 | 47.90657 | -2.31805 | 37986 ft | 428 kts | 329° |
| 2026-05-06 19:11 | 47.95841 | -2.36177 | 37989 ft | 428 kts | 329° |
| 2026-05-06 19:11 | 48.01022 | -2.40562 | 37982 ft | 428 kts | 329° |
| 2026-05-06 19:12 | 48.06196 | -2.44954 | 37993 ft | 428 kts | 329° |
| 2026-05-06 19:12 | 48.11374 | -2.49357 | 37987 ft | 428 kts | 329° |
| 2026-05-06 19:13 | 48.16555 | -2.53766 | 37987 ft | 428 kts | 329° |
| 2026-05-06 19:13 | 48.21733 | -2.58179 | 38005 ft | 429 kts | 329° |
| 2026-05-06 19:14 | 48.26912 | -2.62621 | 37997 ft | 429 kts | 329° |
| 2026-05-06 19:14 | 48.32088 | -2.67069 | 38009 ft | 429 kts | 329° |
| 2026-05-06 19:15 | 48.37260 | -2.71525 | 38000 ft | 429 kts | 329° |
| 2026-05-06 19:15 | 48.42438 | -2.75982 | 38018 ft | 429 kts | 329° |
| 2026-05-06 19:16 | 48.47619 | -2.80453 | 38014 ft | 429 kts | 329° |
| 2026-05-06 19:16 | 48.52792 | -2.84931 | 38014 ft | 429 kts | 329° |
| 2026-05-06 19:17 | 48.57953 | -2.89425 | 38014 ft | 428 kts | 328° |
| 2026-05-06 19:17 | 48.63115 | -2.93924 | 38017 ft | 428 kts | 329° |
| 2026-05-06 19:18 | 48.68241 | -2.98397 | 38023 ft | 428 kts | 329° |
| 2026-05-06 19:18 | 48.73403 | -3.02906 | 38018 ft | 428 kts | 329° |
| 2026-05-06 19:19 | 48.78559 | -3.07414 | 38015 ft | 428 kts | 328° |
| 2026-05-06 19:19 | 48.83711 | -3.11942 | 38019 ft | 428 kts | 328° |
| 2026-05-06 19:20 | 48.88857 | -3.16476 | 38014 ft | 428 kts | 328° |
| 2026-05-06 19:20 | 48.93997 | -3.21021 | 38019 ft | 428 kts | 328° |
| 2026-05-06 19:21 | 48.99141 | -3.25579 | 38014 ft | 428 kts | 328° |
| 2026-05-06 19:21 | 49.04279 | -3.30141 | 38029 ft | 427 kts | 328° |
| 2026-05-06 19:22 | 49.09419 | -3.34705 | 38020 ft | 427 kts | 328° |
| 2026-05-06 19:22 | 49.14557 | -3.39277 | 38028 ft | 427 kts | 328° |
| 2026-05-06 19:23 | 49.19687 | -3.43858 | 38028 ft | 427 kts | 328° |
| 2026-05-06 19:23 | 49.24817 | -3.48459 | 38024 ft | 427 kts | 328° |
| 2026-05-06 19:24 | 49.29942 | -3.53063 | 38031 ft | 427 kts | 328° |
| 2026-05-06 19:24 | 49.35331 | -3.56871 | 38018 ft | 428 kts | 338° |
| 2026-05-06 19:25 | 49.40918 | -3.60043 | 38026 ft | 428 kts | 338° |
| 2026-05-06 19:25 | 49.46502 | -3.63227 | 38025 ft | 428 kts | 338° |
| 2026-05-06 19:26 | 49.52080 | -3.66420 | 38029 ft | 428 kts | 338° |
| 2026-05-06 19:26 | 49.57618 | -3.69611 | 38024 ft | 428 kts | 338° |
| 2026-05-06 19:27 | 49.63192 | -3.72833 | 38024 ft | 428 kts | 338° |
| 2026-05-06 19:27 | 49.68860 | -3.75651 | 38031 ft | 430 kts | 349° |
| 2026-05-06 19:28 | 49.74840 | -3.75820 | 38034 ft | 433 kts | 3° |
| 2026-05-06 19:28 | 49.80843 | -3.75102 | 38028 ft | 433 kts | 2° |
| 2026-05-06 19:29 | 49.86848 | -3.74407 | 38026 ft | 433 kts | 2° |
| 2026-05-06 19:29 | 49.92857 | -3.73706 | 38029 ft | 433 kts | 2° |
| 2026-05-06 19:30 | 49.98868 | -3.72983 | 38027 ft | 433 kts | 2° |
| 2026-05-06 19:30 | 50.04878 | -3.72263 | 38027 ft | 433 kts | 2° |
| 2026-05-06 19:31 | 50.10891 | -3.71551 | 38031 ft | 433 kts | 2° |
| 2026-05-06 19:31 | 50.19904 | -3.70471 | 38033 ft | 433 kts | 2° |
| 2026-05-06 19:32 | 50.25915 | -3.69752 | 38031 ft | 433 kts | 2° |
| 2026-05-06 19:32 | 50.31885 | -3.69032 | 38030 ft | 433 kts | 2° |
| 2026-05-06 19:33 | 50.37892 | -3.68306 | 38034 ft | 433 kts | 2° |
| 2026-05-06 19:33 | 50.43892 | -3.67532 | 38028 ft | 433 kts | 4° |
| 2026-05-06 19:34 | 50.49882 | -3.66411 | 38022 ft | 433 kts | 6° |
| 2026-05-06 19:34 | 50.55854 | -3.65161 | 38020 ft | 433 kts | 6° |
| 2026-05-06 19:35 | 50.60867 | -3.64161 | 38021 ft | 433 kts | 5° |
| 2026-05-06 19:35 | 50.66814 | -3.63023 | 38031 ft | 433 kts | 5° |
| 2026-05-06 19:36 | 50.72802 | -3.61898 | 38036 ft | 433 kts | 5° |
| 2026-05-06 19:36 | 50.78790 | -3.60747 | 38032 ft | 434 kts | 5° |
| 2026-05-06 19:37 | 50.84782 | -3.59583 | 38034 ft | 434 kts | 5° |
| 2026-05-06 19:37 | 50.90769 | -3.58418 | 38036 ft | 433 kts | 5° |
| 2026-05-06 19:38 | 50.96753 | -3.57271 | 38024 ft | 433 kts | 5° |
| 2026-05-06 19:38 | 51.02736 | -3.56121 | 38020 ft | 433 kts | 5° |
| 2026-05-06 19:39 | 51.08709 | -3.54955 | 38017 ft | 433 kts | 5° |
| 2026-05-06 19:39 | 51.14686 | -3.53779 | 38013 ft | 433 kts | 5° |
| 2026-05-06 19:40 | 51.20669 | -3.52604 | 38016 ft | 433 kts | 5° |
| 2026-05-06 19:40 | 51.26650 | -3.51439 | 38016 ft | 433 kts | 5° |
| 2026-05-06 19:41 | 51.32634 | -3.50272 | 38024 ft | 433 kts | 5° |
| 2026-05-06 19:41 | 51.38613 | -3.49098 | 38013 ft | 433 kts | 5° |
| 2026-05-06 19:42 | 51.44581 | -3.47925 | 37330 ft | 431 kts | 5° |
| 2026-05-06 19:42 | 51.47562 | -3.47335 | 36676 ft | 431 kts | 5° |
| 2026-05-06 19:42 | 51.50541 | -3.46741 | 36032 ft | 431 kts | 5° |
| 2026-05-06 19:43 | 51.53514 | -3.46149 | 35514 ft | 429 kts | 5° |
| 2026-05-06 19:43 | 51.56457 | -3.45565 | 35092 ft | 424 kts | 5° |
| 2026-05-06 19:43 | 51.59368 | -3.44986 | 34659 ft | 419 kts | 5° |
| 2026-05-06 19:43 | 51.62252 | -3.44410 | 34226 ft | 415 kts | 5° |
| 2026-05-06 19:44 | 51.65105 | -3.43836 | 33767 ft | 412 kts | 5° |
| 2026-05-06 19:44 | 51.67936 | -3.43269 | 33270 ft | 408 kts | 5° |
| 2026-05-06 19:44 | 51.70738 | -3.42707 | 32779 ft | 405 kts | 5° |
| 2026-05-06 19:44 | 51.73519 | -3.42148 | 32294 ft | 401 kts | 5° |
| 2026-05-06 19:45 | 51.76280 | -3.41597 | 31830 ft | 398 kts | 5° |
| 2026-05-06 19:45 | 51.79018 | -3.41051 | 31400 ft | 394 kts | 5° |
| 2026-05-06 19:45 | 51.81723 | -3.40509 | 30962 ft | 390 kts | 5° |
| 2026-05-06 19:45 | 51.84407 | -3.39975 | 30502 ft | 388 kts | 5° |
| 2026-05-06 19:46 | 51.87085 | -3.39439 | 30039 ft | 386 kts | 5° |
| 2026-05-06 19:46 | 51.89743 | -3.38905 | 29534 ft | 384 kts | 5° |
| 2026-05-06 19:46 | 51.92384 | -3.38371 | 29056 ft | 381 kts | 5° |
| 2026-05-06 19:46 | 51.95013 | -3.37949 | 28595 ft | 378 kts | 2° |
| 2026-05-06 19:47 | 51.97626 | -3.37699 | 28159 ft | 375 kts | 0° |
| 2026-05-06 19:47 | 52.00223 | -3.37547 | 27730 ft | 372 kts | 0° |
| 2026-05-06 19:47 | 52.02803 | -3.37427 | 27325 ft | 369 kts | 0° |
| 2026-05-06 19:47 | 52.05320 | -3.37307 | 26907 ft | 366 kts | 0° |
| 2026-05-06 19:48 | 52.07858 | -3.37169 | 26471 ft | 364 kts | 0° |
| 2026-05-06 19:48 | 52.10412 | -3.37009 | 26024 ft | 361 kts | 1° |
| 2026-05-06 19:48 | 52.12882 | -3.36834 | 25584 ft | 359 kts | 1° |
| 2026-05-06 19:48 | 52.15375 | -3.36645 | 25141 ft | 357 kts | 1° |
| 2026-05-06 19:49 | 52.17850 | -3.36455 | 24698 ft | 355 kts | 1° |
| 2026-05-06 19:49 | 52.20313 | -3.36266 | 24259 ft | 353 kts | 1° |
| 2026-05-06 19:49 | 52.22795 | -3.36080 | 23819 ft | 351 kts | 1° |
| 2026-05-06 19:49 | 52.25227 | -3.35906 | 23381 ft | 349 kts | 1° |
| 2026-05-06 19:50 | 52.27652 | -3.35730 | 22903 ft | 347 kts | 1° |
| 2026-05-06 19:50 | 52.30023 | -3.35557 | 22449 ft | 345 kts | 1° |
| 2026-05-06 19:50 | 52.32443 | -3.35380 | 21992 ft | 343 kts | 1° |
| 2026-05-06 19:50 | 52.34815 | -3.35207 | 21569 ft | 340 kts | 1° |
| 2026-05-06 19:51 | 52.37146 | -3.35036 | 21144 ft | 338 kts | 1° |
| 2026-05-06 19:51 | 52.39487 | -3.34865 | 20715 ft | 336 kts | 1° |
| 2026-05-06 19:51 | 52.41821 | -3.34697 | 20301 ft | 335 kts | 1° |
| 2026-05-06 19:51 | 52.44139 | -3.34528 | 19905 ft | 333 kts | 1° |
| 2026-05-06 19:52 | 52.46447 | -3.34360 | 19519 ft | 331 kts | 1° |
| 2026-05-06 19:52 | 52.48743 | -3.34193 | 19156 ft | 329 kts | 0° |
| 2026-05-06 19:52 | 52.51029 | -3.34022 | 18784 ft | 328 kts | 0° |
| 2026-05-06 19:52 | 52.53301 | -3.33850 | 18420 ft | 326 kts | 0° |
| 2026-05-06 19:53 | 52.55563 | -3.33682 | 18054 ft | 324 kts | 0° |
| 2026-05-06 19:53 | 52.57814 | -3.33515 | 18008 ft | 324 kts | 0° |
| 2026-05-06 19:53 | 52.60075 | -3.33347 | 18016 ft | 325 kts | 0° |
| 2026-05-06 19:53 | 52.62334 | -3.33108 | 18014 ft | 326 kts | 6° |
| 2026-05-06 19:54 | 52.64540 | -3.32215 | 17980 ft | 327 kts | 17° |
| 2026-05-06 19:54 | 52.66680 | -3.30943 | 17580 ft | 326 kts | 18° |
| 2026-05-06 19:54 | 52.68803 | -3.29673 | 17196 ft | 324 kts | 18° |
| 2026-05-06 19:54 | 52.70915 | -3.28411 | 16822 ft | 322 kts | 18° |
| 2026-05-06 19:55 | 52.73017 | -3.27161 | 16448 ft | 320 kts | 17° |
| 2026-05-06 19:55 | 52.75110 | -3.25915 | 16094 ft | 319 kts | 17° |
| 2026-05-06 19:55 | 52.77186 | -3.24676 | 15751 ft | 317 kts | 17° |
| 2026-05-06 19:55 | 52.79256 | -3.23436 | 15409 ft | 315 kts | 18° |
| 2026-05-06 19:56 | 52.81311 | -3.22202 | 15066 ft | 314 kts | 18° |
| 2026-05-06 19:56 | 52.83353 | -3.20974 | 14736 ft | 312 kts | 18° |
| 2026-05-06 19:56 | 52.85388 | -3.19749 | 14409 ft | 310 kts | 17° |
| 2026-05-06 19:56 | 52.87406 | -3.18534 | 14089 ft | 308 kts | 17° |
| 2026-05-06 19:57 | 52.89451 | -3.17522 | 13762 ft | 304 kts | 7° |
| 2026-05-06 19:57 | 52.91542 | -3.17216 | 13397 ft | 301 kts | 0° |
| 2026-05-06 19:57 | 52.93627 | -3.17059 | 13030 ft | 299 kts | 0° |
| 2026-05-06 19:57 | 52.95700 | -3.16901 | 12689 ft | 297 kts | 0° |
| 2026-05-06 19:58 | 52.97753 | -3.16742 | 12328 ft | 294 kts | 0° |
| 2026-05-06 19:58 | 52.99789 | -3.16581 | 11870 ft | 292 kts | 0° |
| 2026-05-06 19:58 | 53.01808 | -3.16419 | 11419 ft | 289 kts | 0° |
| 2026-05-06 19:58 | 53.03811 | -3.16260 | 10945 ft | 287 kts | 0° |
| 2026-05-06 19:59 | 53.05774 | -3.16104 | 10489 ft | 285 kts | 0° |
| 2026-05-06 19:59 | 53.07773 | -3.15948 | 10024 ft | 283 kts | 0° |
| 2026-05-06 19:59 | 53.09732 | -3.15797 | 9510 ft | 281 kts | 0° |
| 2026-05-06 19:59 | 53.11675 | -3.15647 | 9036 ft | 277 kts | 0° |
| 2026-05-06 20:00 | 53.13539 | -3.15496 | 8897 ft | 261 kts | 0° |
| 2026-05-06 20:00 | 53.15328 | -3.15350 | 8512 ft | 256 kts | 0° |
| 2026-05-06 20:00 | 53.17077 | -3.15210 | 8067 ft | 254 kts | 0° |
| 2026-05-06 20:00 | 53.18829 | -3.15068 | 7762 ft | 245 kts | 0° |
| 2026-05-06 20:01 | 53.20525 | -3.14922 | 7349 ft | 243 kts | 1° |
| 2026-05-06 20:01 | 53.22190 | -3.14749 | 6903 ft | 242 kts | 2° |
| 2026-05-06 20:01 | 53.23874 | -3.14564 | 6415 ft | 242 kts | 2° |
| 2026-05-06 20:01 | 53.25555 | -3.14376 | 5929 ft | 242 kts | 2° |
| 2026-05-06 20:02 | 53.27250 | -3.14188 | 5454 ft | 240 kts | 3° |
| 2026-05-06 20:02 | 53.28888 | -3.13969 | 4992 ft | 238 kts | 9° |
| 2026-05-06 20:02 | 53.30337 | -3.12877 | 4739 ft | 226 kts | 44° |
| 2026-05-06 20:02 | 53.31334 | -3.10902 | 4401 ft | 221 kts | 57° |
| 2026-05-06 20:03 | 53.32118 | -3.08731 | 4078 ft | 215 kts | 70° |
| 2026-05-06 20:03 | 53.32234 | -3.06332 | 3762 ft | 205 kts | 107° |
| 2026-05-06 20:03 | 53.31493 | -3.04450 | 3612 ft | 190 kts | 145° |
| 2026-05-06 20:03 | 53.30284 | -3.03823 | 3345 ft | 184 kts | 184° |
| 2026-05-06 20:04 | 53.29132 | -3.04669 | 3002 ft | 186 kts | 224° |
| 2026-05-06 20:04 | 53.28587 | -3.06608 | 2669 ft | 191 kts | 265° |
| 2026-05-06 20:04 | 53.28941 | -3.08682 | 2533 ft | 188 kts | 307° |
| 2026-05-06 20:04 | 53.30007 | -3.09849 | 2479 ft | 184 kts | 348° |
| 2026-05-06 20:05 | 53.31264 | -3.09814 | 2481 ft | 181 kts | 23° |
| 2026-05-06 20:05 | 53.32149 | -3.08461 | 2489 ft | 170 kts | 68° |
| 2026-05-06 20:05 | 53.32346 | -3.06573 | 2425 ft | 164 kts | 89° |
| 2026-05-06 20:05 | 53.32435 | -3.04687 | 2243 ft | 161 kts | 88° |
| 2026-05-06 20:06 | 53.32524 | -3.02830 | 2038 ft | 159 kts | 88° |
| 2026-05-06 20:06 | 53.32611 | -3.01002 | 1832 ft | 157 kts | 88° |
| 2026-05-06 20:06 | 53.32698 | -2.99168 | 1614 ft | 157 kts | 88° |
| 2026-05-06 20:06 | 53.32782 | -2.97400 | 1401 ft | 148 kts | 88° |
| 2026-05-06 20:07 | 53.32862 | -2.95727 | 1202 ft | 141 kts | 88° |
| 2026-05-06 20:07 | 53.32937 | -2.94124 | 1010 ft | 137 kts | 88° |
| 2026-05-06 20:07 | 53.33011 | -2.92547 | 821 ft | 135 kts | 88° |
| 2026-05-06 20:07 | 53.33083 | -2.91005 | 636 ft | 134 kts | 88° |
| 2026-05-06 20:08 | 53.33154 | -2.89490 | 457 ft | 134 kts | 87° |
| 2026-05-06 20:08 | 53.33226 | -2.87928 | 274 ft | 133 kts | 87° |
| 2026-05-06 20:08 | 53.33297 | -2.86419 | 105 ft | 132 kts | 87° |
| 2026-05-06 20:08 | 53.33360 | -2.85044 | 74 ft | 98 kts | 85° |
| 2026-05-06 20:09 | 53.33399 | -2.84191 | 77 ft | 49 kts | 85° |
| 2026-05-06 20:09 | 53.33418 | -2.83785 | 80 ft | 28 kts | 86° |
| 2026-05-06 20:09 | 53.33478 | -2.83624 | 74 ft | 15 kts | 355° |
| 2026-05-06 20:09 | 53.33581 | -2.83654 | 75 ft | 16 kts | 318° |
| 2026-05-06 20:10 | 53.33582 | -2.83842 | 68 ft | 17 kts | 266° |
| 2026-05-06 20:10 | 53.33574 | -2.84041 | 75 ft | 16 kts | 264° |
| 2026-05-06 20:10 | 53.33565 | -2.84218 | 78 ft | 15 kts | 265° |
| 2026-05-06 20:10 | 53.33557 | -2.84402 | 75 ft | 16 kts | 265° |
| 2026-05-06 20:11 | 53.33548 | -2.84586 | 80 ft | 15 kts | 266° |
| 2026-05-06 20:11 | 53.33542 | -2.84757 | 83 ft | 14 kts | 268° |
| 2026-05-06 20:11 | 53.33532 | -2.84904 | 85 ft | 12 kts | 265° |
| 2026-05-06 20:11 | 53.33529 | -2.85027 | 85 ft | 9 kts | 282° |
| 2026-05-06 20:12 | 53.33580 | -2.85064 | 85 ft | 8 kts | 356° |
| 2026-05-06 20:12 | 53.33637 | -2.85085 | 89 ft | 8 kts | 309° |
| 2026-05-06 20:12 | 53.33632 | -2.85175 | 85 ft | 5 kts | 265° |
| 2026-05-06 20:12 | 53.33632 | -2.85191 | 87 ft | 1 kts | 265° |
| 2026-05-06 20:13 | 53.33631 | -2.85192 | 87 ft | 0 kts | 265° |